Pagrindinis puslapis
METAR-TAF:

METAR-TAF

Oro uostai :

Pontianakas, Indonezija

platuma: 00-09S, ilguma: 109-24E, Aukštis: 3 m

Dabartinis oras

Ataskaita buvo paskelbta 19 valandos ir 15 minutes, ne 07:30 UTC
Vėjas 9 kt iš Vakarų/Pietvakarių
Temperatūra 35°C
Drėgmė 50%
Slėgis 1007 hPa
Matomumas 10 km arba daugiau
Išsisklaidę debesys ne aukštis 1200 ft

METAR: WIOO 310730Z 24009KT 9999 SCT012 35/23 Q1007 NOSIG

Laikas: 09:45 (02:45 UTC)


TAF: trūkstamas

Orai ataskaitas ir orų prognozės (METAR, TAF).

turimą stotys yra geltonos ir raudonos taškus žemėlapyje.

Perkelti pele per norėdami pamatyti stoties vardą.

Tada spustelėkite, norėdami matyti oro stebėjimo ir prognozės.

Norėdami pakeisti žemėlapį: spustelėkite ant žalios mygtukų su juodo kryžiaus žemyn,; žalią mygtuką su brūkšneliu, jei norite nutolinti; arba žalių rodyklių gretimoms žemėlapius.


METAR-TAF: